createdAt,value
2018-07-22T00:00:35.504Z,1014.85
2018-07-22T00:01:35.485Z,1014.81
2018-07-22T00:02:35.362Z,1014.81
2018-07-22T00:03:35.525Z,1014.81
2018-07-22T00:04:35.624Z,1014.82
2018-07-22T00:05:35.386Z,1014.84
2018-07-22T00:06:35.504Z,1014.81
2018-07-22T00:07:35.451Z,1014.83
2018-07-22T00:08:35.520Z,1014.89
2018-07-22T00:09:35.471Z,1014.86
2018-07-22T00:10:35.424Z,1014.82
2018-07-22T00:11:35.386Z,1014.78
2018-07-22T00:12:35.407Z,1014.79
2018-07-22T00:13:35.435Z,1014.79
2018-07-22T00:14:35.397Z,1014.76
2018-07-22T00:15:35.404Z,1014.77
2018-07-22T00:16:35.390Z,1014.76
2018-07-22T00:17:35.419Z,1014.74
2018-07-22T00:18:35.426Z,1014.76
2018-07-22T00:19:35.547Z,1014.7
2018-07-22T00:20:35.392Z,1014.76
2018-07-22T00:21:35.438Z,1014.69
2018-07-22T00:22:35.394Z,1014.73
2018-07-22T00:23:35.401Z,1014.76
2018-07-22T00:24:35.630Z,1014.72
2018-07-22T00:25:35.477Z,1014.7
2018-07-22T00:26:35.452Z,1014.7
2018-07-22T00:27:35.476Z,1014.75
2018-07-22T00:28:35.421Z,1014.73
2018-07-22T00:29:35.423Z,1014.72
2018-07-22T00:30:35.406Z,1014.72
2018-07-22T00:31:35.470Z,1014.7
2018-07-22T00:32:35.419Z,1014.69
2018-07-22T00:33:35.425Z,1014.68
2018-07-22T00:34:35.451Z,1014.68
2018-07-22T00:35:35.480Z,1014.72
2018-07-22T00:36:35.445Z,1014.64
2018-07-22T00:37:35.461Z,1014.71
2018-07-22T00:38:35.432Z,1014.63
2018-07-22T00:39:35.466Z,1014.68
2018-07-22T00:40:35.555Z,1014.69
2018-07-22T00:41:35.432Z,1014.71
2018-07-22T00:42:35.521Z,1014.67
2018-07-22T00:43:35.438Z,1014.71
2018-07-22T00:44:35.451Z,1014.69
2018-07-22T00:45:35.457Z,1014.72
2018-07-22T00:46:35.431Z,1014.71
2018-07-22T00:47:35.411Z,1014.73
2018-07-22T00:48:35.416Z,1014.69
2018-07-22T00:49:35.422Z,1014.7
2018-07-22T00:50:35.399Z,1014.73
2018-07-22T00:51:35.400Z,1014.72
2018-07-22T00:52:35.435Z,1014.79
2018-07-22T00:53:35.450Z,1014.8
2018-07-22T00:54:35.419Z,1014.8
2018-07-22T00:55:35.418Z,1014.83
2018-07-22T00:56:35.445Z,1014.8
2018-07-22T00:57:35.418Z,1014.83
2018-07-22T00:58:35.420Z,1014.81
2018-07-22T00:59:35.449Z,1014.82
2018-07-22T01:00:35.444Z,1014.81
2018-07-22T01:01:35.437Z,1014.83
2018-07-22T01:02:35.427Z,1014.83
2018-07-22T01:03:35.420Z,1014.82
2018-07-22T01:04:35.445Z,1014.84
2018-07-22T01:05:35.434Z,1014.85
2018-07-22T01:06:35.461Z,1014.82
2018-07-22T01:07:35.447Z,1014.84
2018-07-22T01:08:35.417Z,1014.8
2018-07-22T01:09:35.511Z,1014.81
2018-07-22T01:10:35.485Z,1014.81
2018-07-22T01:11:35.458Z,1014.77
2018-07-22T01:12:35.623Z,1014.79
2018-07-22T01:13:35.490Z,1014.78
2018-07-22T01:14:35.457Z,1014.74
2018-07-22T01:15:35.568Z,1014.73
2018-07-22T01:16:35.464Z,1014.77
2018-07-22T01:17:35.454Z,1014.78
2018-07-22T01:18:35.436Z,1014.75
2018-07-22T01:19:35.472Z,1014.76
2018-07-22T01:20:35.670Z,1014.75
2018-07-22T01:21:35.436Z,1014.78
2018-07-22T01:22:35.449Z,1014.79
2018-07-22T01:23:35.467Z,1014.77
2018-07-22T01:24:35.489Z,1014.81
2018-07-22T01:25:35.469Z,1014.76
2018-07-22T01:26:35.437Z,1014.76
2018-07-22T01:27:35.648Z,1014.73
2018-07-22T01:28:35.449Z,1014.74
2018-07-22T01:29:35.704Z,1014.69
2018-07-22T01:30:35.537Z,1014.72
2018-07-22T01:31:35.514Z,1014.73
2018-07-22T01:32:35.465Z,1014.71
2018-07-22T01:33:35.455Z,1014.71
2018-07-22T01:34:35.444Z,1014.73
2018-07-22T01:35:35.470Z,1014.76
2018-07-22T01:36:35.476Z,1014.74
2018-07-22T01:37:35.708Z,1014.74
2018-07-22T01:38:35.429Z,1014.72
2018-07-22T01:39:35.555Z,1014.7
2018-07-22T01:40:35.508Z,1014.72
2018-07-22T01:41:35.509Z,1014.75
2018-07-22T01:42:35.472Z,1014.74
2018-07-22T01:43:35.595Z,1014.75
2018-07-22T01:44:35.456Z,1014.73
2018-07-22T01:45:35.466Z,1014.74
2018-07-22T01:46:35.468Z,1014.73
2018-07-22T01:47:35.447Z,1014.73
2018-07-22T01:48:35.455Z,1014.71
2018-07-22T01:49:35.578Z,1014.73
2018-07-22T01:50:35.493Z,1014.71
2018-07-22T01:51:36.017Z,1014.77
2018-07-22T01:52:35.520Z,1014.75
2018-07-22T01:53:35.468Z,1014.78
2018-07-22T01:54:35.496Z,1014.74
2018-07-22T01:55:35.532Z,1014.78
2018-07-22T01:56:35.511Z,1014.85
2018-07-22T01:57:35.464Z,1014.86
2018-07-22T01:58:35.483Z,1014.85
2018-07-22T01:59:35.467Z,1014.89
2018-07-22T02:00:35.461Z,1014.86
2018-07-22T02:01:35.639Z,1014.89
2018-07-22T02:02:35.479Z,1014.86
2018-07-22T02:03:35.498Z,1014.87
2018-07-22T02:04:35.447Z,1014.88
2018-07-22T02:05:35.492Z,1014.88
2018-07-22T02:06:35.478Z,1014.86
2018-07-22T02:07:35.468Z,1014.87
2018-07-22T02:08:35.491Z,1014.91
2018-07-22T02:09:35.466Z,1014.9
2018-07-22T02:10:35.475Z,1014.89
2018-07-22T02:11:35.501Z,1014.91
2018-07-22T02:12:35.470Z,1014.88
2018-07-22T02:13:35.484Z,1014.9
2018-07-22T02:14:35.480Z,1014.9
2018-07-22T02:15:35.472Z,1014.85
2018-07-22T02:16:35.500Z,1014.9
2018-07-22T02:17:35.486Z,1014.89
2018-07-22T02:18:35.480Z,1014.87
2018-07-22T02:19:35.487Z,1014.88
2018-07-22T02:20:35.557Z,1014.88
2018-07-22T02:21:35.597Z,1014.92
2018-07-22T02:22:35.502Z,1014.91
2018-07-22T02:23:35.554Z,1014.9
2018-07-22T02:24:35.468Z,1014.89
2018-07-22T02:25:35.511Z,1014.91
2018-07-22T02:26:35.514Z,1014.92
2018-07-22T02:27:35.555Z,1014.89
2018-07-22T02:28:35.659Z,1014.9
2018-07-22T02:29:35.519Z,1014.93
2018-07-22T02:30:35.576Z,1014.96
2018-07-22T02:31:35.496Z,1014.95
2018-07-22T02:32:35.557Z,1014.99
2018-07-22T02:33:35.579Z,1014.97
2018-07-22T02:34:35.503Z,1014.96
2018-07-22T02:35:35.476Z,1015.01
2018-07-22T02:36:35.552Z,1014.95
2018-07-22T02:37:35.513Z,1014.95
2018-07-22T02:38:35.523Z,1014.91
2018-07-22T02:39:35.604Z,1014.9
2018-07-22T02:40:35.493Z,1014.85
2018-07-22T02:41:35.497Z,1014.81
2018-07-22T02:42:35.505Z,1014.84
2018-07-22T02:43:35.684Z,1014.84
2018-07-22T02:44:35.550Z,1014.83
2018-07-22T02:45:35.549Z,1014.85
2018-07-22T02:46:35.593Z,1014.81
2018-07-22T02:47:35.504Z,1014.81
2018-07-22T02:48:35.496Z,1014.78
2018-07-22T02:49:35.584Z,1014.75
2018-07-22T02:50:35.574Z,1014.76
2018-07-22T02:51:35.768Z,1014.75
2018-07-22T02:52:35.596Z,1014.77
2018-07-22T02:53:35.651Z,1014.76
2018-07-22T02:54:35.828Z,1014.72
2018-07-22T02:55:35.618Z,1014.71
2018-07-22T02:56:35.525Z,1014.73
2018-07-22T02:57:35.556Z,1014.71
2018-07-22T02:58:35.608Z,1014.73
2018-07-22T02:59:35.650Z,1014.66
2018-07-22T03:00:35.491Z,1014.65
2018-07-22T03:01:35.545Z,1014.65
2018-07-22T03:02:35.497Z,1014.65
2018-07-22T03:03:35.511Z,1014.67
2018-07-22T03:04:35.518Z,1014.7
2018-07-22T03:05:35.526Z,1014.69
2018-07-22T03:06:35.624Z,1014.7
2018-07-22T03:07:35.543Z,1014.72
2018-07-22T03:08:35.546Z,1014.72
2018-07-22T03:09:35.531Z,1014.71
2018-07-22T03:10:35.517Z,1014.77
2018-07-22T03:11:35.511Z,1014.73
2018-07-22T03:12:35.572Z,1014.78
2018-07-22T03:13:35.526Z,1014.79
2018-07-22T03:14:35.696Z,1014.77
2018-07-22T03:15:35.576Z,1014.79
2018-07-22T03:16:35.535Z,1014.81
2018-07-22T03:17:35.528Z,1014.8
2018-07-22T03:18:35.536Z,1014.81
2018-07-22T03:19:35.589Z,1014.83
2018-07-22T03:20:35.519Z,1014.82
2018-07-22T03:21:35.565Z,1014.82
2018-07-22T03:22:35.644Z,1014.8
2018-07-22T03:23:35.577Z,1014.79
2018-07-22T03:24:35.554Z,1014.76
2018-07-22T03:25:35.563Z,1014.73
2018-07-22T03:26:35.570Z,1014.75
2018-07-22T03:27:35.562Z,1014.74
2018-07-22T03:28:35.573Z,1014.8
2018-07-22T03:29:35.581Z,1014.8
2018-07-22T03:30:35.547Z,1014.8
2018-07-22T03:31:35.660Z,1014.79
2018-07-22T03:32:35.565Z,1014.77
2018-07-22T03:33:35.587Z,1014.79
2018-07-22T03:34:35.552Z,1014.83
2018-07-22T03:35:35.735Z,1014.79
2018-07-22T03:36:35.566Z,1014.82
2018-07-22T03:37:35.593Z,1014.83
2018-07-22T03:38:35.645Z,1014.85
2018-07-22T03:39:35.631Z,1014.84
2018-07-22T03:40:35.554Z,1014.83
2018-07-22T03:41:35.544Z,1014.88
2018-07-22T03:42:35.562Z,1014.89
2018-07-22T03:43:35.585Z,1014.85
2018-07-22T03:44:35.542Z,1014.9
2018-07-22T03:45:35.662Z,1014.89
2018-07-22T03:46:35.589Z,1014.88
2018-07-22T03:47:35.699Z,1014.87
2018-07-22T03:48:35.581Z,1014.95
2018-07-22T03:49:35.685Z,1014.96
2018-07-22T03:50:35.608Z,1014.97
2018-07-22T03:51:35.634Z,1014.95
2018-07-22T03:52:35.553Z,1014.98
2018-07-22T03:53:35.569Z,1014.98
2018-07-22T03:54:35.624Z,1014.95
2018-07-22T03:55:35.559Z,1014.99
2018-07-22T03:56:35.718Z,1014.97
2018-07-22T03:57:35.642Z,1014.96
2018-07-22T03:58:35.558Z,1014.97
2018-07-22T03:59:35.534Z,1014.94
2018-07-22T04:00:35.574Z,1014.96
2018-07-22T04:01:35.585Z,1014.99
2018-07-22T04:02:35.601Z,1015
2018-07-22T04:03:35.617Z,1014.96
2018-07-22T04:04:35.554Z,1014.98
2018-07-22T04:05:35.548Z,1015
2018-07-22T04:06:35.739Z,1014.96
2018-07-22T04:07:35.733Z,1015.02
2018-07-22T04:08:35.601Z,1015.01
2018-07-22T04:09:35.623Z,1014.99
2018-07-22T04:10:35.763Z,1015.02
2018-07-22T04:11:35.562Z,1015
2018-07-22T04:12:35.728Z,1015.03
2018-07-22T04:13:35.584Z,1015.03
2018-07-22T04:14:35.603Z,1015.04
2018-07-22T04:15:35.764Z,1015.02
2018-07-22T04:16:35.603Z,1015.01
2018-07-22T04:17:35.575Z,1015.05
2018-07-22T04:18:35.537Z,1015.05
2018-07-22T04:19:35.618Z,1015.05
2018-07-22T04:20:35.564Z,1015.06
2018-07-22T04:21:35.631Z,1015.07
2018-07-22T04:22:35.783Z,1015.08
2018-07-22T04:23:35.589Z,1015.07
2018-07-22T04:24:35.571Z,1015.1
2018-07-22T04:25:35.677Z,1015.1
2018-07-22T04:26:35.695Z,1015.12
2018-07-22T04:27:35.736Z,1015.09
2018-07-22T04:28:35.655Z,1015.12
2018-07-22T04:29:35.646Z,1015.09
2018-07-22T04:30:35.544Z,1015.09
2018-07-22T04:31:35.699Z,1015.11
2018-07-22T04:32:35.579Z,1015.09
2018-07-22T04:33:35.571Z,1015.14
2018-07-22T04:34:35.595Z,1015.09
2018-07-22T04:35:35.616Z,1015.16
2018-07-22T04:36:35.588Z,1015.14
2018-07-22T04:37:35.604Z,1015.18
2018-07-22T04:38:35.609Z,1015.18
2018-07-22T04:39:35.613Z,1015.21
2018-07-22T04:40:36.301Z,1015.2
2018-07-22T04:41:35.609Z,1015.25
2018-07-22T04:42:35.557Z,1015.2
2018-07-22T04:43:35.573Z,1015.2
2018-07-22T04:44:35.570Z,1015.17
2018-07-22T04:45:35.614Z,1015.23
2018-07-22T04:46:35.579Z,1015.22
2018-07-22T04:47:35.577Z,1015.2
2018-07-22T04:48:35.612Z,1015.24
2018-07-22T04:49:35.582Z,1015.26
2018-07-22T04:50:35.627Z,1015.28
2018-07-22T04:51:35.736Z,1015.3
2018-07-22T04:52:35.568Z,1015.32
2018-07-22T04:53:35.794Z,1015.31
2018-07-22T04:54:35.639Z,1015.32
2018-07-22T04:55:35.619Z,1015.32
2018-07-22T04:56:35.580Z,1015.33
2018-07-22T04:57:35.645Z,1015.32
2018-07-22T04:58:35.616Z,1015.32
2018-07-22T04:59:35.662Z,1015.31
2018-07-22T05:00:35.592Z,1015.33
2018-07-22T05:01:35.633Z,1015.33
2018-07-22T05:02:35.603Z,1015.36
2018-07-22T05:03:35.594Z,1015.39
2018-07-22T05:04:35.591Z,1015.37
2018-07-22T05:05:35.761Z,1015.36
2018-07-22T05:06:35.606Z,1015.35
2018-07-22T05:07:35.584Z,1015.4
2018-07-22T05:08:35.778Z,1015.4
2018-07-22T05:09:35.650Z,1015.38
2018-07-22T05:10:35.633Z,1015.41
2018-07-22T05:11:35.642Z,1015.4
2018-07-22T05:12:35.634Z,1015.42
2018-07-22T05:13:35.586Z,1015.45
2018-07-22T05:14:35.610Z,1015.48
2018-07-22T05:15:35.690Z,1015.5
2018-07-22T05:16:35.572Z,1015.48
2018-07-22T05:17:35.889Z,1015.49
2018-07-22T05:18:35.776Z,1015.5
2018-07-22T05:19:35.650Z,1015.51
2018-07-22T05:20:35.720Z,1015.47
2018-07-22T05:21:35.604Z,1015.49
2018-07-22T05:22:36.164Z,1015.47
2018-07-22T05:23:35.692Z,1015.52
2018-07-22T05:24:35.635Z,1015.52
2018-07-22T05:25:35.641Z,1015.55
2018-07-22T05:26:35.716Z,1015.57
2018-07-22T05:27:35.706Z,1015.61
2018-07-22T05:28:35.753Z,1015.56
2018-07-22T05:29:35.617Z,1015.55
2018-07-22T05:30:35.813Z,1015.55
2018-07-22T05:31:35.595Z,1015.54
2018-07-22T05:32:35.635Z,1015.55
2018-07-22T05:33:35.654Z,1015.54
2018-07-22T05:34:35.590Z,1015.52
2018-07-22T05:35:35.607Z,1015.52
2018-07-22T05:36:35.674Z,1015.54
2018-07-22T05:37:35.644Z,1015.57
2018-07-22T05:38:35.621Z,1015.58
2018-07-22T05:39:35.620Z,1015.57
2018-07-22T05:40:35.650Z,1015.58
2018-07-22T05:41:35.648Z,1015.58
2018-07-22T05:42:35.612Z,1015.57
2018-07-22T05:43:35.627Z,1015.6
2018-07-22T05:44:35.671Z,1015.6
2018-07-22T05:45:35.622Z,1015.6
2018-07-22T05:46:35.633Z,1015.58
2018-07-22T05:47:35.676Z,1015.6
2018-07-22T05:48:35.645Z,1015.57
2018-07-22T05:49:35.602Z,1015.59
2018-07-22T05:50:35.610Z,1015.63
2018-07-22T05:51:35.620Z,1015.62
2018-07-22T05:52:35.623Z,1015.65
2018-07-22T05:53:35.666Z,1015.67
2018-07-22T05:54:35.622Z,1015.68
2018-07-22T05:55:35.642Z,1015.7
2018-07-22T05:56:35.769Z,1015.72
2018-07-22T05:57:35.662Z,1015.7
2018-07-22T05:58:35.662Z,1015.69
2018-07-22T05:59:35.623Z,1015.67
2018-07-22T06:00:35.635Z,1015.71
2018-07-22T06:01:35.634Z,1015.73
2018-07-22T06:02:35.648Z,1015.71
2018-07-22T06:03:35.620Z,1015.77
2018-07-22T06:04:35.630Z,1015.7
2018-07-22T06:05:35.695Z,1015.75
2018-07-22T06:06:35.723Z,1015.77
2018-07-22T06:07:35.672Z,1015.79
2018-07-22T06:08:35.831Z,1015.8
2018-07-22T06:09:35.818Z,1015.82
2018-07-22T06:10:35.638Z,1015.78
2018-07-22T06:11:35.691Z,1015.76
2018-07-22T06:12:35.622Z,1015.77
2018-07-22T06:13:35.669Z,1015.79
2018-07-22T06:14:35.677Z,1015.81
2018-07-22T06:15:35.709Z,1015.81
2018-07-22T06:16:35.673Z,1015.85
2018-07-22T06:17:35.686Z,1015.86
2018-07-22T06:18:35.688Z,1015.85
2018-07-22T06:19:35.654Z,1015.86
2018-07-22T06:20:35.639Z,1015.88
2018-07-22T06:21:35.682Z,1015.9
2018-07-22T06:22:35.790Z,1015.89
2018-07-22T06:23:35.639Z,1015.91
2018-07-22T06:24:35.645Z,1015.92
2018-07-22T06:25:35.843Z,1015.93
2018-07-22T06:26:35.657Z,1015.93
2018-07-22T06:27:35.732Z,1015.96
2018-07-22T06:28:35.723Z,1015.95
2018-07-22T06:29:35.713Z,1015.95
2018-07-22T06:30:35.824Z,1015.92
2018-07-22T06:31:35.727Z,1015.91
2018-07-22T06:32:36.070Z,1015.96
2018-07-22T06:33:35.671Z,1015.95
2018-07-22T06:34:35.819Z,1015.94
2018-07-22T06:35:35.715Z,1015.96
2018-07-22T06:36:35.630Z,1015.94
2018-07-22T06:37:35.688Z,1015.95
2018-07-22T06:38:35.795Z,1015.99
2018-07-22T06:39:35.709Z,1015.99
2018-07-22T06:40:35.770Z,1015.99
2018-07-22T06:41:35.650Z,1015.94
2018-07-22T06:42:35.670Z,1015.99
2018-07-22T06:43:35.824Z,1015.99
2018-07-22T06:44:35.813Z,1015.94
2018-07-22T06:45:35.672Z,1015.95
2018-07-22T06:46:35.802Z,1015.96
2018-07-22T06:47:35.756Z,1015.94
2018-07-22T06:48:35.654Z,1015.97
2018-07-22T06:49:36.770Z,1015.98
2018-07-22T06:50:35.685Z,1015.98
2018-07-22T06:51:35.668Z,1015.95
2018-07-22T06:52:35.657Z,1015.94
2018-07-22T06:53:35.908Z,1015.94
2018-07-22T06:54:35.675Z,1015.95
2018-07-22T06:55:35.675Z,1015.97
2018-07-22T06:56:35.657Z,1015.97
2018-07-22T06:57:35.723Z,1016.02
2018-07-22T06:58:35.679Z,1016
2018-07-22T06:59:35.951Z,1016.02
2018-07-22T07:00:35.707Z,1015.96
2018-07-22T07:01:35.652Z,1015.97
2018-07-22T07:02:35.664Z,1016
2018-07-22T07:03:35.672Z,1015.95
2018-07-22T07:04:35.677Z,1015.95
2018-07-22T07:05:35.811Z,1015.93
2018-07-22T07:06:35.679Z,1015.9
2018-07-22T07:07:35.723Z,1015.89
2018-07-22T07:08:35.855Z,1015.92
2018-07-22T07:09:35.675Z,1015.9
2018-07-22T07:10:35.716Z,1015.92
2018-07-22T07:11:35.668Z,1015.93
2018-07-22T07:12:35.689Z,1015.94
2018-07-22T07:13:35.702Z,1015.93
2018-07-22T07:14:35.664Z,1015.96
2018-07-22T07:15:35.711Z,1015.96
2018-07-22T07:16:35.690Z,1015.94
2018-07-22T07:17:35.687Z,1015.99
2018-07-22T07:18:35.732Z,1015.97
2018-07-22T07:19:35.759Z,1015.99
2018-07-22T07:20:35.710Z,1015.99
2018-07-22T07:21:35.673Z,1016
2018-07-22T07:22:35.701Z,1015.99
2018-07-22T07:23:35.696Z,1016.02
2018-07-22T07:24:35.744Z,1016.01
2018-07-22T07:25:35.726Z,1015.98
2018-07-22T07:26:35.821Z,1015.96
2018-07-22T07:27:35.760Z,1016.01
2018-07-22T07:28:35.704Z,1015.99
2018-07-22T07:29:35.852Z,1015.99
2018-07-22T07:30:35.751Z,1016.03
2018-07-22T07:31:35.739Z,1016.02
2018-07-22T07:32:35.839Z,1016.03
2018-07-22T07:33:35.938Z,1016.06
2018-07-22T07:34:35.930Z,1016.07
2018-07-22T07:35:35.709Z,1016.07
2018-07-22T07:36:35.694Z,1016.04
2018-07-22T07:37:35.698Z,1016.03
2018-07-22T07:38:35.726Z,1016.09
2018-07-22T07:39:35.928Z,1016.07
2018-07-22T07:40:35.699Z,1016.09
2018-07-22T07:41:35.705Z,1016.07
2018-07-22T07:42:35.719Z,1016.1
2018-07-22T07:43:35.862Z,1016.09
2018-07-22T07:44:35.809Z,1016.06
2018-07-22T07:45:35.827Z,1016.14
2018-07-22T07:46:35.690Z,1016.14
2018-07-22T07:47:35.717Z,1016.14
2018-07-22T07:48:35.735Z,1016.15
2018-07-22T07:49:36.014Z,1016.17
2018-07-22T07:50:35.692Z,1016.14
2018-07-22T07:51:35.792Z,1016.17
2018-07-22T07:52:35.721Z,1016.13
2018-07-22T07:53:35.743Z,1016.11
2018-07-22T07:54:35.705Z,1016.1
2018-07-22T07:55:35.768Z,1016.12
2018-07-22T07:56:35.900Z,1016.16
2018-07-22T07:57:35.710Z,1016.11
2018-07-22T07:58:35.721Z,1016.16
2018-07-22T07:59:35.768Z,1016.17
2018-07-22T08:00:35.721Z,1016.16
2018-07-22T08:01:35.768Z,1016.15
2018-07-22T08:02:35.836Z,1016.18
2018-07-22T08:03:35.738Z,1016.16
2018-07-22T08:04:35.741Z,1016.17
2018-07-22T08:05:36.188Z,1016.15
2018-07-22T08:06:35.785Z,1016.16
2018-07-22T08:07:35.804Z,1016.14
2018-07-22T08:08:35.716Z,1016.13
2018-07-22T08:09:35.749Z,1016.13
2018-07-22T08:10:35.728Z,1016.16
2018-07-22T08:11:35.807Z,1016.15
2018-07-22T08:12:35.914Z,1016.17
2018-07-22T08:13:35.849Z,1016.15
2018-07-22T08:14:35.941Z,1016.2
2018-07-22T08:15:35.722Z,1016.2
2018-07-22T08:16:35.746Z,1016.15
2018-07-22T08:17:35.733Z,1016.15
2018-07-22T08:18:35.746Z,1016.17
2018-07-22T08:19:36.431Z,1016.17
2018-07-22T08:20:35.745Z,1016.14
2018-07-22T08:21:35.925Z,1016.15
2018-07-22T08:22:35.714Z,1016.15
2018-07-22T08:23:35.727Z,1016.15
2018-07-22T08:24:35.761Z,1016.18
2018-07-22T08:25:35.726Z,1016.17
2018-07-22T08:26:35.888Z,1016.19
2018-07-22T08:27:35.739Z,1016.17
2018-07-22T08:28:35.755Z,1016.16
2018-07-22T08:29:35.726Z,1016.14
2018-07-22T08:30:35.839Z,1016.19
2018-07-22T08:31:35.807Z,1016.16
2018-07-22T08:32:35.752Z,1016.17
2018-07-22T08:33:35.747Z,1016.15
2018-07-22T08:34:35.754Z,1016.14
2018-07-22T08:35:35.783Z,1016.13
2018-07-22T08:36:38.030Z,1016.1
2018-07-22T08:37:36.026Z,1016.08
2018-07-22T08:38:35.904Z,1016.09
2018-07-22T08:39:35.840Z,1016.1
2018-07-22T08:40:35.773Z,1016.09
2018-07-22T08:41:35.981Z,1016.09
2018-07-22T08:42:35.883Z,1016.09
2018-07-22T08:43:35.809Z,1016.05
2018-07-22T08:44:35.860Z,1016.1
2018-07-22T08:45:35.782Z,1016.09
2018-07-22T08:46:35.788Z,1016.05
2018-07-22T08:47:36.057Z,1016.11
2018-07-22T08:48:35.749Z,1016.09
2018-07-22T08:49:35.771Z,1016.11
2018-07-22T08:50:35.928Z,1016.11
2018-07-22T08:51:35.980Z,1016.14
2018-07-22T08:52:35.884Z,1016.12
2018-07-22T08:53:35.744Z,1016.1
2018-07-22T08:54:35.764Z,1016.08
2018-07-22T08:55:35.786Z,1016.07
2018-07-22T08:56:35.786Z,1016.08
2018-07-22T08:57:35.821Z,1016.07
2018-07-22T08:58:35.774Z,1016.09
2018-07-22T08:59:36.095Z,1016.04
2018-07-22T09:00:35.800Z,1016.05
2018-07-22T09:01:35.838Z,1016.07
2018-07-22T09:02:35.852Z,1016.07
2018-07-22T09:03:35.812Z,1016.06
2018-07-22T09:04:35.767Z,1016.07
2018-07-22T09:05:36.282Z,1016.11
2018-07-22T09:06:35.779Z,1016.11
2018-07-22T09:07:35.777Z,1016.11
2018-07-22T09:08:35.840Z,1016.09
2018-07-22T09:09:35.750Z,1016.11
2018-07-22T09:10:35.953Z,1016.1
2018-07-22T09:11:35.929Z,1016.14
2018-07-22T09:12:35.768Z,1016.13
2018-07-22T09:13:35.785Z,1016.12
2018-07-22T09:14:35.779Z,1016.11
2018-07-22T09:15:35.859Z,1016.14
2018-07-22T09:16:35.807Z,1016.15
2018-07-22T09:17:35.864Z,1016.14
2018-07-22T09:18:35.762Z,1016.16
2018-07-22T09:19:35.797Z,1016.13
2018-07-22T09:20:35.826Z,1016.15
2018-07-22T09:21:35.808Z,1016.07
2018-07-22T09:22:35.898Z,1016.11
2018-07-22T09:23:35.833Z,1016.16
2018-07-22T09:24:35.777Z,1016.15
2018-07-22T09:25:35.790Z,1016.16
2018-07-22T09:26:35.946Z,1016.16
2018-07-22T09:27:35.922Z,1016.15
2018-07-22T09:28:35.779Z,1016.18
2018-07-22T09:29:35.747Z,1016.19
2018-07-22T09:30:35.952Z,1016.18
2018-07-22T09:31:35.790Z,1016.23
2018-07-22T09:32:36.112Z,1016.21
2018-07-22T09:33:35.794Z,1016.2
2018-07-22T09:34:36.165Z,1016.23
2018-07-22T09:35:35.773Z,1016.25
2018-07-22T09:36:36.117Z,1016.22
2018-07-22T09:37:35.925Z,1016.24
2018-07-22T09:38:36.022Z,1016.22
2018-07-22T09:39:35.802Z,1016.25
2018-07-22T09:40:35.983Z,1016.25
2018-07-22T09:41:35.784Z,1016.24
2018-07-22T09:42:35.961Z,1016.28
2018-07-22T09:43:35.829Z,1016.29
2018-07-22T09:44:35.925Z,1016.34
2018-07-22T09:45:35.901Z,1016.32
2018-07-22T09:46:35.904Z,1016.32
2018-07-22T09:47:35.960Z,1016.36
2018-07-22T09:48:35.978Z,1016.35
2018-07-22T09:49:35.873Z,1016.34
2018-07-22T09:50:35.892Z,1016.32
2018-07-22T09:51:35.795Z,1016.35
2018-07-22T09:52:35.942Z,1016.32
2018-07-22T09:53:35.968Z,1016.32
2018-07-22T09:54:35.839Z,1016.32
2018-07-22T09:55:35.892Z,1016.34
2018-07-22T09:56:36.058Z,1016.32
2018-07-22T09:57:35.983Z,1016.27
2018-07-22T09:58:36.125Z,1016.27
2018-07-22T09:59:35.893Z,1016.28
2018-07-22T10:00:35.996Z,1016.29
2018-07-22T10:01:36.016Z,1016.3
2018-07-22T10:02:36.018Z,1016.28
2018-07-22T10:03:36.025Z,1016.28
2018-07-22T10:04:36.256Z,1016.27
2018-07-22T10:05:36.069Z,1016.25
2018-07-22T10:06:39.620Z,1016.29
2018-07-22T10:07:37.070Z,1016.25
2018-07-22T10:08:35.948Z,1016.33
2018-07-22T10:09:36.057Z,1016.28
2018-07-22T10:10:36.073Z,1016.23
2018-07-22T10:11:37.149Z,1016.29
2018-07-22T10:12:36.124Z,1016.25
2018-07-22T10:13:36.036Z,1016.22
2018-07-22T10:14:36.006Z,1016.24
2018-07-22T10:15:35.797Z,1016.22
2018-07-22T10:16:35.809Z,1016.18
2018-07-22T10:17:35.934Z,1016.2
2018-07-22T10:18:35.822Z,1016.18
2018-07-22T10:19:35.923Z,1016.22
2018-07-22T10:20:36.046Z,1016.22
2018-07-22T10:21:35.843Z,1016.18
2018-07-22T10:22:35.794Z,1016.22
2018-07-22T10:23:35.878Z,1016.18
2018-07-22T10:24:35.825Z,1016.16
2018-07-22T10:25:35.821Z,1016.14
2018-07-22T10:26:35.838Z,1016.16
2018-07-22T10:27:35.810Z,1016.16
2018-07-22T10:28:35.963Z,1016.11
2018-07-22T10:29:35.855Z,1016.16
2018-07-22T10:30:35.844Z,1016.08
2018-07-22T10:31:35.837Z,1016.1
2018-07-22T10:32:35.932Z,1016.09
2018-07-22T10:33:35.820Z,1016.1
2018-07-22T10:34:36.036Z,1016.08
2018-07-22T10:35:35.937Z,1016.07
2018-07-22T10:36:36.067Z,1016.04
2018-07-22T10:37:35.850Z,1016.03
2018-07-22T10:38:35.894Z,1016.03
2018-07-22T10:39:35.861Z,1015.99
2018-07-22T10:40:35.970Z,1016.04
2018-07-22T10:41:35.918Z,1016.02
2018-07-22T10:42:36.624Z,1015.98
2018-07-22T10:43:35.852Z,1015.96
2018-07-22T10:44:35.927Z,1015.94
2018-07-22T10:45:35.831Z,1015.97
2018-07-22T10:46:35.928Z,1015.97
2018-07-22T10:47:35.959Z,1015.92
2018-07-22T10:48:35.897Z,1015.96
2018-07-22T10:49:35.998Z,1015.93
2018-07-22T10:50:36.079Z,1015.92
2018-07-22T10:51:35.950Z,1015.88
2018-07-22T10:52:35.954Z,1015.86
2018-07-22T10:53:35.824Z,1015.87
2018-07-22T10:54:35.987Z,1015.9
2018-07-22T10:55:35.973Z,1015.92
2018-07-22T10:56:35.974Z,1015.86
2018-07-22T10:57:36.051Z,1015.9
2018-07-22T10:58:35.910Z,1015.84
2018-07-22T10:59:35.894Z,1015.85
2018-07-22T11:00:36.010Z,1015.86
2018-07-22T11:01:35.941Z,1015.84
2018-07-22T11:02:36.070Z,1015.82
2018-07-22T11:03:36.067Z,1015.84
2018-07-22T11:04:35.956Z,1015.85
2018-07-22T11:05:35.936Z,1015.83
2018-07-22T11:06:35.981Z,1015.84
2018-07-22T11:07:36.001Z,1015.84
2018-07-22T11:08:35.916Z,1015.85
2018-07-22T11:09:35.916Z,1015.88
2018-07-22T11:10:35.915Z,1015.87
2018-07-22T11:11:36.144Z,1015.83
2018-07-22T11:12:35.963Z,1015.83
2018-07-22T11:13:35.920Z,1015.82
2018-07-22T11:14:36.089Z,1015.78
2018-07-22T11:15:35.951Z,1015.74
2018-07-22T11:16:36.693Z,1015.74
2018-07-22T11:17:35.889Z,1015.76
2018-07-22T11:18:36.128Z,1015.76
2018-07-22T11:19:36.060Z,1015.7
2018-07-22T11:20:36.157Z,1015.73
2018-07-22T11:21:35.996Z,1015.74
2018-07-22T11:22:36.007Z,1015.73
2018-07-22T11:23:36.646Z,1015.76
2018-07-22T11:24:35.913Z,1015.73
2018-07-22T11:25:36.643Z,1015.74
2018-07-22T11:26:36.033Z,1015.7
2018-07-22T11:27:36.032Z,1015.69
2018-07-22T11:28:39.232Z,1015.67
2018-07-22T11:29:35.897Z,1015.66
2018-07-22T11:30:35.955Z,1015.65
2018-07-22T11:31:35.997Z,1015.62
2018-07-22T11:32:35.900Z,1015.59
2018-07-22T11:33:37.008Z,1015.62
2018-07-22T11:34:35.914Z,1015.61
2018-07-22T11:35:35.969Z,1015.59
2018-07-22T11:36:35.895Z,1015.62
2018-07-22T11:37:35.863Z,1015.61
2018-07-22T11:38:36.009Z,1015.61
2018-07-22T11:39:35.872Z,1015.57
2018-07-22T11:40:35.887Z,1015.55
2018-07-22T11:41:35.990Z,1015.53
2018-07-22T11:42:36.004Z,1015.53
2018-07-22T11:43:35.965Z,1015.52
2018-07-22T11:44:35.939Z,1015.58
2018-07-22T11:45:35.887Z,1015.52
2018-07-22T11:46:35.880Z,1015.54
2018-07-22T11:47:35.939Z,1015.53
2018-07-22T11:48:35.904Z,1015.54
2018-07-22T11:49:36.272Z,1015.54
2018-07-22T11:50:36.092Z,1015.54
2018-07-22T11:51:35.964Z,1015.53
2018-07-22T11:52:35.974Z,1015.55
2018-07-22T11:53:35.894Z,1015.51
2018-07-22T11:54:35.934Z,1015.53
2018-07-22T11:55:36.036Z,1015.46
2018-07-22T11:56:36.017Z,1015.48
2018-07-22T11:57:36.010Z,1015.48
2018-07-22T11:58:36.123Z,1015.47
2018-07-22T11:59:35.883Z,1015.45
2018-07-22T12:00:35.892Z,1015.41
2018-07-22T12:01:35.994Z,1015.42
2018-07-22T12:02:36.222Z,1015.44
2018-07-22T12:03:35.920Z,1015.4
2018-07-22T12:04:36.079Z,1015.42
2018-07-22T12:05:35.929Z,1015.37
2018-07-22T12:06:35.927Z,1015.41
2018-07-22T12:07:36.039Z,1015.37
2018-07-22T12:08:36.116Z,1015.35